sensor_id;sensor_type;location;lat;lon;timestamp;temperature;humidity
51825;DHT22;37879;52.986;6.282;2023-02-20T00:00:40;5.70;99.90
51825;DHT22;37879;52.986;6.282;2023-02-20T00:03:06;5.70;99.90
51825;DHT22;37879;52.986;6.282;2023-02-20T00:05:32;5.70;99.90
51825;DHT22;37879;52.986;6.282;2023-02-20T00:07:58;5.70;99.90
51825;DHT22;37879;52.986;6.282;2023-02-20T00:10:23;5.70;99.90
51825;DHT22;37879;52.986;6.282;2023-02-20T00:12:51;5.70;99.90
51825;DHT22;37879;52.986;6.282;2023-02-20T00:15:18;5.70;99.90
51825;DHT22;37879;52.986;6.282;2023-02-20T00:17:44;5.70;99.90
51825;DHT22;37879;52.986;6.282;2023-02-20T00:20:23;5.70;99.90
51825;DHT22;37879;52.986;6.282;2023-02-20T00:22:50;5.70;99.90
51825;DHT22;37879;52.986;6.282;2023-02-20T00:25:16;5.70;99.90
51825;DHT22;37879;52.986;6.282;2023-02-20T00:27:43;5.60;99.90
51825;DHT22;37879;52.986;6.282;2023-02-20T00:30:18;5.70;99.90
51825;DHT22;37879;52.986;6.282;2023-02-20T00:32:49;5.70;99.90
51825;DHT22;37879;52.986;6.282;2023-02-20T00:35:15;5.70;99.90
51825;DHT22;37879;52.986;6.282;2023-02-20T00:37:41;5.70;99.90
51825;DHT22;37879;52.986;6.282;2023-02-20T00:40:08;5.70;99.90
51825;DHT22;37879;52.986;6.282;2023-02-20T00:42:34;5.80;99.90
51825;DHT22;37879;52.986;6.282;2023-02-20T00:45:00;6.10;99.90
51825;DHT22;37879;52.986;6.282;2023-02-20T00:47:26;5.80;99.90
51825;DHT22;37879;52.986;6.282;2023-02-20T00:49:51;5.80;99.90
51825;DHT22;37879;52.986;6.282;2023-02-20T00:52:17;5.90;99.90
51825;DHT22;37879;52.986;6.282;2023-02-20T00:54:43;5.90;99.90
51825;DHT22;37879;52.986;6.282;2023-02-20T00:57:08;5.90;99.90
51825;DHT22;37879;52.986;6.282;2023-02-20T00:59:34;5.90;99.90
51825;DHT22;37879;52.986;6.282;2023-02-20T01:01:59;5.90;99.90
51825;DHT22;37879;52.986;6.282;2023-02-20T01:04:25;6.00;99.90
51825;DHT22;37879;52.986;6.282;2023-02-20T01:06:51;6.00;99.90
51825;DHT22;37879;52.986;6.282;2023-02-20T01:09:17;6.40;99.90
51825;DHT22;37879;52.986;6.282;2023-02-20T01:11:43;6.00;99.90
51825;DHT22;37879;52.986;6.282;2023-02-20T01:14:09;6.00;99.90
51825;DHT22;37879;52.986;6.282;2023-02-20T01:16:35;5.90;99.90
51825;DHT22;37879;52.986;6.282;2023-02-20T01:19:01;5.90;99.90
51825;DHT22;37879;52.986;6.282;2023-02-20T01:21:26;5.90;99.90
51825;DHT22;37879;52.986;6.282;2023-02-20T01:23:52;5.90;99.90
51825;DHT22;37879;52.986;6.282;2023-02-20T01:26:17;5.80;99.90
51825;DHT22;37879;52.986;6.282;2023-02-20T01:28:46;5.80;99.90
51825;DHT22;37879;52.986;6.282;2023-02-20T01:31:15;5.80;99.90
51825;DHT22;37879;52.986;6.282;2023-02-20T01:33:42;5.80;99.90
51825;DHT22;37879;52.986;6.282;2023-02-20T01:36:08;5.80;99.90
51825;DHT22;37879;52.986;6.282;2023-02-20T01:38:34;5.90;99.90
51825;DHT22;37879;52.986;6.282;2023-02-20T01:40:59;5.90;99.90
51825;DHT22;37879;52.986;6.282;2023-02-20T01:43:25;5.90;99.90
51825;DHT22;37879;52.986;6.282;2023-02-20T01:45:51;6.00;99.90
51825;DHT22;37879;52.986;6.282;2023-02-20T01:48:22;6.00;99.90
51825;DHT22;37879;52.986;6.282;2023-02-20T01:50:51;6.00;99.90
51825;DHT22;37879;52.986;6.282;2023-02-20T01:53:21;6.00;99.90
51825;DHT22;37879;52.986;6.282;2023-02-20T01:55:53;7.00;99.90
51825;DHT22;37879;52.986;6.282;2023-02-20T01:58:36;6.60;99.90
51825;DHT22;37879;52.986;6.282;2023-02-20T02:01:03;6.10;99.90
51825;DHT22;37879;52.986;6.282;2023-02-20T02:03:32;6.10;99.90
51825;DHT22;37879;52.986;6.282;2023-02-20T02:06:03;6.20;99.90
51825;DHT22;37879;52.986;6.282;2023-02-20T02:08:30;6.20;99.90
51825;DHT22;37879;52.986;6.282;2023-02-20T02:11:02;6.20;99.90
51825;DHT22;37879;52.986;6.282;2023-02-20T02:13:29;6.20;99.90
51825;DHT22;37879;52.986;6.282;2023-02-20T02:16:36;6.20;99.90
51825;DHT22;37879;52.986;6.282;2023-02-20T02:19:31;6.30;99.90
51825;DHT22;37879;52.986;6.282;2023-02-20T02:29:51;6.30;99.90
51825;DHT22;37879;52.986;6.282;2023-02-20T02:38:01;6.40;99.90
51825;DHT22;37879;52.986;6.282;2023-02-20T02:40:41;7.60;99.90
51825;DHT22;37879;52.986;6.282;2023-02-20T02:43:23;6.50;99.90
51825;DHT22;37879;52.986;6.282;2023-02-20T02:45:56;6.50;99.90
51825;DHT22;37879;52.986;6.282;2023-02-20T02:48:31;6.60;99.90
51825;DHT22;37879;52.986;6.282;2023-02-20T02:51:07;6.60;99.90
51825;DHT22;37879;52.986;6.282;2023-02-20T02:53:34;6.60;99.90
51825;DHT22;37879;52.986;6.282;2023-02-20T02:55:59;6.60;99.90
51825;DHT22;37879;52.986;6.282;2023-02-20T02:58:48;6.70;99.90
51825;DHT22;37879;52.986;6.282;2023-02-20T03:01:17;6.70;99.90
51825;DHT22;37879;52.986;6.282;2023-02-20T03:03:45;6.70;99.90
51825;DHT22;37879;52.986;6.282;2023-02-20T03:06:21;6.70;99.90
51825;DHT22;37879;52.986;6.282;2023-02-20T03:08:55;6.80;99.90
51825;DHT22;37879;52.986;6.282;2023-02-20T03:11:26;6.80;99.90
51825;DHT22;37879;52.986;6.282;2023-02-20T03:13:57;6.80;99.90
51825;DHT22;37879;52.986;6.282;2023-02-20T03:16:54;6.80;99.90
51825;DHT22;37879;52.986;6.282;2023-02-20T03:19:37;6.80;99.90
51825;DHT22;37879;52.986;6.282;2023-02-20T03:24:45;6.90;99.90
51825;DHT22;37879;52.986;6.282;2023-02-20T03:30:25;6.90;99.90
51825;DHT22;37879;52.986;6.282;2023-02-20T03:32:57;6.90;99.90
51825;DHT22;37879;52.986;6.282;2023-02-20T03:35:45;7.10;99.90
51825;DHT22;37879;52.986;6.282;2023-02-20T03:38:33;6.90;99.90
51825;DHT22;37879;52.986;6.282;2023-02-20T03:41:19;6.90;99.90
51825;DHT22;37879;52.986;6.282;2023-02-20T03:44:05;6.80;99.90
51825;DHT22;37879;52.986;6.282;2023-02-20T03:46:34;6.80;99.90
51825;DHT22;37879;52.986;6.282;2023-02-20T03:49:06;6.80;99.90
51825;DHT22;37879;52.986;6.282;2023-02-20T03:51:36;6.80;99.90
51825;DHT22;37879;52.986;6.282;2023-02-20T03:54:02;6.80;99.90
51825;DHT22;37879;52.986;6.282;2023-02-20T03:56:35;6.80;99.90
51825;DHT22;37879;52.986;6.282;2023-02-20T03:59:24;6.80;99.90
51825;DHT22;37879;52.986;6.282;2023-02-20T04:01:55;6.90;99.90
51825;DHT22;37879;52.986;6.282;2023-02-20T04:04:27;6.90;99.90
51825;DHT22;37879;52.986;6.282;2023-02-20T04:06:54;6.00;99.90
51825;DHT22;37879;52.986;6.282;2023-02-20T04:09:26;6.90;99.90
51825;DHT22;37879;52.986;6.282;2023-02-20T04:11:59;6.90;99.90
51825;DHT22;37879;52.986;6.282;2023-02-20T04:14:28;6.90;99.90
51825;DHT22;37879;52.986;6.282;2023-02-20T04:16:58;6.90;99.90
51825;DHT22;37879;52.986;6.282;2023-02-20T04:19:25;6.90;99.90
51825;DHT22;37879;52.986;6.282;2023-02-20T04:21:53;7.20;99.90
51825;DHT22;37879;52.986;6.282;2023-02-20T04:24:27;6.90;99.90
51825;DHT22;37879;52.986;6.282;2023-02-20T04:26:54;6.90;99.90
51825;DHT22;37879;52.986;6.282;2023-02-20T04:29:19;6.90;99.90
51825;DHT22;37879;52.986;6.282;2023-02-20T04:31:45;6.90;99.90
51825;DHT22;37879;52.986;6.282;2023-02-20T04:34:11;6.90;99.90
51825;DHT22;37879;52.986;6.282;2023-02-20T04:36:37;8.70;99.90
51825;DHT22;37879;52.986;6.282;2023-02-20T04:39:02;6.90;99.90
51825;DHT22;37879;52.986;6.282;2023-02-20T04:41:28;6.90;99.90
51825;DHT22;37879;52.986;6.282;2023-02-20T04:43:54;6.90;99.90
51825;DHT22;37879;52.986;6.282;2023-02-20T04:46:39;6.90;99.90
51825;DHT22;37879;52.986;6.282;2023-02-20T04:49:05;6.90;99.90
51825;DHT22;37879;52.986;6.282;2023-02-20T04:51:31;6.90;99.90
51825;DHT22;37879;52.986;6.282;2023-02-20T04:53:56;6.90;99.90
51825;DHT22;37879;52.986;6.282;2023-02-20T04:56:22;7.00;99.90
51825;DHT22;37879;52.986;6.282;2023-02-20T04:58:48;6.90;99.90
51825;DHT22;37879;52.986;6.282;2023-02-20T05:01:15;6.90;99.90
51825;DHT22;37879;52.986;6.282;2023-02-20T05:03:40;6.90;99.90
51825;DHT22;37879;52.986;6.282;2023-02-20T05:06:06;7.00;99.90
51825;DHT22;37879;52.986;6.282;2023-02-20T05:08:32;7.00;99.90
51825;DHT22;37879;52.986;6.282;2023-02-20T05:10:57;7.00;99.90
51825;DHT22;37879;52.986;6.282;2023-02-20T05:13:23;6.90;99.90
51825;DHT22;37879;52.986;6.282;2023-02-20T05:15:49;7.10;99.90
51825;DHT22;37879;52.986;6.282;2023-02-20T05:18:23;6.90;99.90
51825;DHT22;37879;52.986;6.282;2023-02-20T05:20:49;7.00;99.90
51825;DHT22;37879;52.986;6.282;2023-02-20T05:23:33;7.30;99.90
51825;DHT22;37879;52.986;6.282;2023-02-20T05:25:59;6.90;99.90
51825;DHT22;37879;52.986;6.282;2023-02-20T05:28:25;7.20;99.90
51825;DHT22;37879;52.986;6.282;2023-02-20T05:30:50;7.00;99.90
51825;DHT22;37879;52.986;6.282;2023-02-20T05:33:16;7.00;99.90
51825;DHT22;37879;52.986;6.282;2023-02-20T05:35:42;7.00;99.90
51825;DHT22;37879;52.986;6.282;2023-02-20T05:38:07;7.00;99.90
51825;DHT22;37879;52.986;6.282;2023-02-20T05:40:33;7.40;99.90
51825;DHT22;37879;52.986;6.282;2023-02-20T05:42:59;7.50;99.90
51825;DHT22;37879;52.986;6.282;2023-02-20T05:45:25;7.40;99.90
51825;DHT22;37879;52.986;6.282;2023-02-20T05:47:50;7.10;99.90
51825;DHT22;37879;52.986;6.282;2023-02-20T05:50:16;8.50;99.90
51825;DHT22;37879;52.986;6.282;2023-02-20T05:52:42;7.10;99.90
51825;DHT22;37879;52.986;6.282;2023-02-20T05:55:07;7.10;99.90
51825;DHT22;37879;52.986;6.282;2023-02-20T05:57:33;7.10;99.90
51825;DHT22;37879;52.986;6.282;2023-02-20T05:59:59;7.10;99.90
51825;DHT22;37879;52.986;6.282;2023-02-20T06:02:24;7.10;99.90
51825;DHT22;37879;52.986;6.282;2023-02-20T06:04:50;7.10;99.90
51825;DHT22;37879;52.986;6.282;2023-02-20T06:07:16;7.10;99.90
51825;DHT22;37879;52.986;6.282;2023-02-20T06:09:42;7.20;99.90
51825;DHT22;37879;52.986;6.282;2023-02-20T06:12:08;7.20;99.90
51825;DHT22;37879;52.986;6.282;2023-02-20T06:14:34;7.20;99.90
51825;DHT22;37879;52.986;6.282;2023-02-20T06:17:00;7.20;99.90
51825;DHT22;37879;52.986;6.282;2023-02-20T06:19:25;7.30;99.90
51825;DHT22;37879;52.986;6.282;2023-02-20T06:21:52;7.30;99.90
51825;DHT22;37879;52.986;6.282;2023-02-20T06:24:18;7.30;99.90
51825;DHT22;37879;52.986;6.282;2023-02-20T06:26:44;7.30;99.90
51825;DHT22;37879;52.986;6.282;2023-02-20T06:29:12;7.30;99.90
51825;DHT22;37879;52.986;6.282;2023-02-20T06:31:38;7.30;99.90
51825;DHT22;37879;52.986;6.282;2023-02-20T06:34:05;7.40;99.90
51825;DHT22;37879;52.986;6.282;2023-02-20T06:36:34;7.40;99.90
51825;DHT22;37879;52.986;6.282;2023-02-20T06:39:00;7.40;99.90
51825;DHT22;37879;52.986;6.282;2023-02-20T06:41:26;7.70;99.90
51825;DHT22;37879;52.986;6.282;2023-02-20T06:43:52;7.40;99.90
51825;DHT22;37879;52.986;6.282;2023-02-20T06:46:17;7.40;99.90
51825;DHT22;37879;52.986;6.282;2023-02-20T06:48:48;7.40;99.90
51825;DHT22;37879;52.986;6.282;2023-02-20T06:51:19;7.50;99.90
51825;DHT22;37879;52.986;6.282;2023-02-20T06:53:46;7.40;99.90
51825;DHT22;37879;52.986;6.282;2023-02-20T06:56:20;7.40;99.90
51825;DHT22;37879;52.986;6.282;2023-02-20T06:58:48;7.40;99.90
51825;DHT22;37879;52.986;6.282;2023-02-20T07:01:16;7.40;99.90
51825;DHT22;37879;52.986;6.282;2023-02-20T07:03:42;7.40;99.90
51825;DHT22;37879;52.986;6.282;2023-02-20T07:06:09;7.50;99.90
51825;DHT22;37879;52.986;6.282;2023-02-20T07:08:36;7.80;99.90
51825;DHT22;37879;52.986;6.282;2023-02-20T07:11:01;7.50;99.90
51825;DHT22;37879;52.986;6.282;2023-02-20T07:13:27;7.50;99.90
51825;DHT22;37879;52.986;6.282;2023-02-20T07:15:53;8.20;99.90
51825;DHT22;37879;52.986;6.282;2023-02-20T07:18:18;8.20;99.90
51825;DHT22;37879;52.986;6.282;2023-02-20T07:20:49;7.50;99.90
51825;DHT22;37879;52.986;6.282;2023-02-20T07:23:15;7.80;99.90
51825;DHT22;37879;52.986;6.282;2023-02-20T07:25:41;8.30;99.90
51825;DHT22;37879;52.986;6.282;2023-02-20T07:28:06;7.50;99.90
51825;DHT22;37879;52.986;6.282;2023-02-20T07:30:33;7.50;99.90
51825;DHT22;37879;52.986;6.282;2023-02-20T07:32:59;7.50;99.90
51825;DHT22;37879;52.986;6.282;2023-02-20T07:35:24;7.70;99.90
51825;DHT22;37879;52.986;6.282;2023-02-20T07:37:50;7.50;99.90
51825;DHT22;37879;52.986;6.282;2023-02-20T07:40:16;7.60;99.90
51825;DHT22;37879;52.986;6.282;2023-02-20T07:42:41;7.60;99.90
51825;DHT22;37879;52.986;6.282;2023-02-20T07:45:08;7.50;99.90
51825;DHT22;37879;52.986;6.282;2023-02-20T07:47:34;7.80;99.90
51825;DHT22;37879;52.986;6.282;2023-02-20T07:50:00;8.20;99.90
51825;DHT22;37879;52.986;6.282;2023-02-20T07:52:26;7.60;99.90
51825;DHT22;37879;52.986;6.282;2023-02-20T07:54:51;7.60;99.90
51825;DHT22;37879;52.986;6.282;2023-02-20T07:57:17;7.50;99.90
51825;DHT22;37879;52.986;6.282;2023-02-20T07:59:43;7.60;99.90
51825;DHT22;37879;52.986;6.282;2023-02-20T08:02:08;7.60;99.90
51825;DHT22;37879;52.986;6.282;2023-02-20T08:04:34;7.60;99.90
51825;DHT22;37879;52.986;6.282;2023-02-20T08:06:59;7.70;99.90
51825;DHT22;37879;52.986;6.282;2023-02-20T08:09:25;8.00;99.90
51825;DHT22;37879;52.986;6.282;2023-02-20T08:11:51;7.70;99.90
51825;DHT22;37879;52.986;6.282;2023-02-20T08:14:17;7.70;99.90
51825;DHT22;37879;52.986;6.282;2023-02-20T08:16:42;7.70;99.90
51825;DHT22;37879;52.986;6.282;2023-02-20T08:19:08;7.70;99.90
51825;DHT22;37879;52.986;6.282;2023-02-20T08:21:34;7.70;99.90
51825;DHT22;37879;52.986;6.282;2023-02-20T08:23:59;7.70;99.90
51825;DHT22;37879;52.986;6.282;2023-02-20T08:26:25;7.70;99.90
51825;DHT22;37879;52.986;6.282;2023-02-20T08:28:52;7.80;99.90
51825;DHT22;37879;52.986;6.282;2023-02-20T08:31:18;8.20;99.90
51825;DHT22;37879;52.986;6.282;2023-02-20T08:33:43;7.80;99.90
51825;DHT22;37879;52.986;6.282;2023-02-20T08:36:09;7.80;99.90
51825;DHT22;37879;52.986;6.282;2023-02-20T08:38:37;7.80;99.90
51825;DHT22;37879;52.986;6.282;2023-02-20T08:41:08;9.10;99.90
51825;DHT22;37879;52.986;6.282;2023-02-20T08:43:37;8.70;99.90
51825;DHT22;37879;52.986;6.282;2023-02-20T08:46:04;8.10;99.90
51825;DHT22;37879;52.986;6.282;2023-02-20T08:48:30;6.70;99.90
51825;DHT22;37879;52.986;6.282;2023-02-20T08:50:56;8.00;99.90
51825;DHT22;37879;52.986;6.282;2023-02-20T08:53:22;7.90;99.90
51825;DHT22;37879;52.986;6.282;2023-02-20T08:55:48;7.90;99.90
51825;DHT22;37879;52.986;6.282;2023-02-20T08:58:18;8.00;99.90
51825;DHT22;37879;52.986;6.282;2023-02-20T09:00:43;8.00;99.90
51825;DHT22;37879;52.986;6.282;2023-02-20T09:03:09;8.50;99.90
51825;DHT22;37879;52.986;6.282;2023-02-20T09:05:35;8.10;99.90
51825;DHT22;37879;52.986;6.282;2023-02-20T09:08:02;8.10;99.90
51825;DHT22;37879;52.986;6.282;2023-02-20T09:10:27;8.20;99.90
51825;DHT22;37879;52.986;6.282;2023-02-20T09:12:53;8.20;99.90
51825;DHT22;37879;52.986;6.282;2023-02-20T09:15:19;8.40;99.90
51825;DHT22;37879;52.986;6.282;2023-02-20T09:17:48;8.20;99.90
51825;DHT22;37879;52.986;6.282;2023-02-20T09:20:16;8.30;99.90
51825;DHT22;37879;52.986;6.282;2023-02-20T09:22:42;8.30;99.90
51825;DHT22;37879;52.986;6.282;2023-02-20T09:25:10;8.70;99.90
51825;DHT22;37879;52.986;6.282;2023-02-20T09:27:36;8.30;99.90
51825;DHT22;37879;52.986;6.282;2023-02-20T09:30:02;8.30;99.90
51825;DHT22;37879;52.986;6.282;2023-02-20T09:32:27;8.30;99.90
51825;DHT22;37879;52.986;6.282;2023-02-20T09:34:53;8.30;99.90
51825;DHT22;37879;52.986;6.282;2023-02-20T09:37:19;8.30;99.90
51825;DHT22;37879;52.986;6.282;2023-02-20T09:39:44;8.30;99.90
51825;DHT22;37879;52.986;6.282;2023-02-20T09:42:30;8.30;99.90
51825;DHT22;37879;52.986;6.282;2023-02-20T09:45:07;8.30;99.90
51825;DHT22;37879;52.986;6.282;2023-02-20T09:50:52;8.20;99.90
51825;DHT22;37879;52.986;6.282;2023-02-20T09:56:07;8.30;99.90
51825;DHT22;37879;52.986;6.282;2023-02-20T09:59:27;8.30;99.90
51825;DHT22;37879;52.986;6.282;2023-02-20T10:02:01;8.40;99.90
51825;DHT22;37879;52.986;6.282;2023-02-20T10:04:52;8.30;99.90
51825;DHT22;37879;52.986;6.282;2023-02-20T10:09:59;8.40;99.90
51825;DHT22;37879;52.986;6.282;2023-02-20T10:16:05;8.40;99.90
51825;DHT22;37879;52.986;6.282;2023-02-20T10:21:15;8.40;99.90
51825;DHT22;37879;52.986;6.282;2023-02-20T10:23:52;8.50;99.90
51825;DHT22;37879;52.986;6.282;2023-02-20T10:26:33;8.50;99.90
51825;DHT22;37879;52.986;6.282;2023-02-20T10:29:39;8.50;99.90
51825;DHT22;37879;52.986;6.282;2023-02-20T10:32:09;8.60;99.90
51825;DHT22;37879;52.986;6.282;2023-02-20T10:34:40;9.20;99.90
51825;DHT22;37879;52.986;6.282;2023-02-20T10:37:19;8.60;99.90
51825;DHT22;37879;52.986;6.282;2023-02-20T10:43:42;8.70;99.90
51825;DHT22;37879;52.986;6.282;2023-02-20T10:46:04;8.70;99.90
51825;DHT22;37879;52.986;6.282;2023-02-20T10:48:33;8.70;99.90
51825;DHT22;37879;52.986;6.282;2023-02-20T10:51:10;8.80;99.90
51825;DHT22;37879;52.986;6.282;2023-02-20T10:56:13;8.80;99.90
51825;DHT22;37879;52.986;6.282;2023-02-20T11:01:22;8.90;99.90
51825;DHT22;37879;52.986;6.282;2023-02-20T11:04:19;9.00;99.90
51825;DHT22;37879;52.986;6.282;2023-02-20T11:06:51;9.00;99.90
51825;DHT22;37879;52.986;6.282;2023-02-20T11:09:18;9.00;99.90
51825;DHT22;37879;52.986;6.282;2023-02-20T11:11:45;9.00;99.90
51825;DHT22;37879;52.986;6.282;2023-02-20T11:17:04;8.90;99.90
51825;DHT22;37879;52.986;6.282;2023-02-20T11:19:49;8.90;99.90
51825;DHT22;37879;52.986;6.282;2023-02-20T11:22:17;8.90;99.90
51825;DHT22;37879;52.986;6.282;2023-02-20T11:24:45;9.00;99.90
51825;DHT22;37879;52.986;6.282;2023-02-20T11:27:22;9.10;99.90
51825;DHT22;37879;52.986;6.282;2023-02-20T11:30:01;8.90;99.90
51825;DHT22;37879;52.986;6.282;2023-02-20T11:37:45;9.10;99.90
51825;DHT22;37879;52.986;6.282;2023-02-20T11:40:26;9.10;99.90
51825;DHT22;37879;52.986;6.282;2023-02-20T11:42:53;9.10;99.90
51825;DHT22;37879;52.986;6.282;2023-02-20T11:45:27;9.10;99.90
51825;DHT22;37879;52.986;6.282;2023-02-20T11:50:48;9.20;99.90
51825;DHT22;37879;52.986;6.282;2023-02-20T11:55:49;9.30;99.90
51825;DHT22;37879;52.986;6.282;2023-02-20T11:58:24;9.30;99.90
51825;DHT22;37879;52.986;6.282;2023-02-20T12:00:51;9.30;99.90
51825;DHT22;37879;52.986;6.282;2023-02-20T12:03:30;9.30;99.90
51825;DHT22;37879;52.986;6.282;2023-02-20T12:06:01;9.30;99.90
51825;DHT22;37879;52.986;6.282;2023-02-20T12:08:35;9.30;99.90
51825;DHT22;37879;52.986;6.282;2023-02-20T12:11:16;9.30;99.90
51825;DHT22;37879;52.986;6.282;2023-02-20T12:13:44;9.40;99.90
51825;DHT22;37879;52.986;6.282;2023-02-20T12:22:57;10.10;99.90
51825;DHT22;37879;52.986;6.282;2023-02-20T12:25:29;9.40;99.90
51825;DHT22;37879;52.986;6.282;2023-02-20T12:28:15;9.40;99.90
51825;DHT22;37879;52.986;6.282;2023-02-20T12:39:16;9.90;99.90
51825;DHT22;37879;52.986;6.282;2023-02-20T12:50:13;9.50;99.90
51825;DHT22;37879;52.986;6.282;2023-02-20T12:52:53;9.50;99.90
51825;DHT22;37879;52.986;6.282;2023-02-20T13:03:16;9.70;99.90
51825;DHT22;37879;52.986;6.282;2023-02-20T13:05:45;9.70;99.90
51825;DHT22;37879;52.986;6.282;2023-02-20T13:08:17;9.70;99.90
51825;DHT22;37879;52.986;6.282;2023-02-20T13:13:17;9.70;99.90
51825;DHT22;37879;52.986;6.282;2023-02-20T13:15:57;9.70;99.90
51825;DHT22;37879;52.986;6.282;2023-02-20T13:18:34;9.70;99.90
51825;DHT22;37879;52.986;6.282;2023-02-20T13:21:05;9.80;99.90
51825;DHT22;37879;52.986;6.282;2023-02-20T13:23:34;9.70;99.90
51825;DHT22;37879;52.986;6.282;2023-02-20T13:26:01;9.80;99.90
51825;DHT22;37879;52.986;6.282;2023-02-20T13:31:16;9.80;99.90
51825;DHT22;37879;52.986;6.282;2023-02-20T13:33:47;9.80;99.90
51825;DHT22;37879;52.986;6.282;2023-02-20T13:36:16;9.80;99.90
51825;DHT22;37879;52.986;6.282;2023-02-20T13:39:25;9.70;99.90
51825;DHT22;37879;52.986;6.282;2023-02-20T13:47:32;9.70;99.90
51825;DHT22;37879;52.986;6.282;2023-02-20T13:50:01;9.70;99.90
51825;DHT22;37879;52.986;6.282;2023-02-20T13:52:43;9.70;99.90
51825;DHT22;37879;52.986;6.282;2023-02-20T14:02:53;9.80;99.90
51825;DHT22;37879;52.986;6.282;2023-02-20T14:05:29;9.80;99.90
51825;DHT22;37879;52.986;6.282;2023-02-20T14:07:56;9.80;99.90
51825;DHT22;37879;52.986;6.282;2023-02-20T14:10:29;9.90;99.90
51825;DHT22;37879;52.986;6.282;2023-02-20T14:12:59;9.90;99.90
51825;DHT22;37879;52.986;6.282;2023-02-20T14:15:26;9.90;99.90
51825;DHT22;37879;52.986;6.282;2023-02-20T14:17:53;9.90;99.90
51825;DHT22;37879;52.986;6.282;2023-02-20T14:20:33;9.90;99.90
51825;DHT22;37879;52.986;6.282;2023-02-20T14:23:08;9.90;99.90
51825;DHT22;37879;52.986;6.282;2023-02-20T14:25:35;9.90;99.90
51825;DHT22;37879;52.986;6.282;2023-02-20T14:28:07;9.90;99.90
51825;DHT22;37879;52.986;6.282;2023-02-20T14:30:33;10.00;99.90
51825;DHT22;37879;52.986;6.282;2023-02-20T14:32:59;10.00;99.90
51825;DHT22;37879;52.986;6.282;2023-02-20T14:35:42;8.90;99.90
51825;DHT22;37879;52.986;6.282;2023-02-20T14:41:16;10.00;99.90
51825;DHT22;37879;52.986;6.282;2023-02-20T14:43:43;10.00;99.90
51825;DHT22;37879;52.986;6.282;2023-02-20T14:46:20;10.00;99.90
51825;DHT22;37879;52.986;6.282;2023-02-20T14:48:46;10.10;99.90
51825;DHT22;37879;52.986;6.282;2023-02-20T14:51:14;10.10;99.90
51825;DHT22;37879;52.986;6.282;2023-02-20T14:53:41;10.10;99.90
51825;DHT22;37879;52.986;6.282;2023-02-20T14:56:15;10.10;99.90
51825;DHT22;37879;52.986;6.282;2023-02-20T14:58:42;10.10;99.90
51825;DHT22;37879;52.986;6.282;2023-02-20T15:03:42;10.10;99.90
51825;DHT22;37879;52.986;6.282;2023-02-20T15:06:13;10.50;99.90
51825;DHT22;37879;52.986;6.282;2023-02-20T15:08:39;10.10;99.90
51825;DHT22;37879;52.986;6.282;2023-02-20T15:11:08;10.10;99.90
51825;DHT22;37879;52.986;6.282;2023-02-20T15:13:40;10.10;99.90
51825;DHT22;37879;52.986;6.282;2023-02-20T15:16:30;10.00;99.90
51825;DHT22;37879;52.986;6.282;2023-02-20T15:18:56;10.00;99.90
51825;DHT22;37879;52.986;6.282;2023-02-20T15:21:38;10.00;99.90
51825;DHT22;37879;52.986;6.282;2023-02-20T15:26:49;10.30;99.90
51825;DHT22;37879;52.986;6.282;2023-02-20T15:29:27;10.00;99.90
51825;DHT22;37879;52.986;6.282;2023-02-20T15:32:01;10.10;99.90
51825;DHT22;37879;52.986;6.282;2023-02-20T15:34:33;9.90;99.90
51825;DHT22;37879;52.986;6.282;2023-02-20T15:36:59;9.90;99.90
51825;DHT22;37879;52.986;6.282;2023-02-20T15:39:25;9.80;99.90
51825;DHT22;37879;52.986;6.282;2023-02-20T15:41:52;9.80;99.90
51825;DHT22;37879;52.986;6.282;2023-02-20T15:44:18;10.40;99.90
51825;DHT22;37879;52.986;6.282;2023-02-20T15:46:45;9.80;99.90
51825;DHT22;37879;52.986;6.282;2023-02-20T15:49:11;9.80;99.90
51825;DHT22;37879;52.986;6.282;2023-02-20T15:51:39;9.80;99.90
51825;DHT22;37879;52.986;6.282;2023-02-20T15:54:14;9.80;99.90
51825;DHT22;37879;52.986;6.282;2023-02-20T15:56:41;9.70;99.90
51825;DHT22;37879;52.986;6.282;2023-02-20T15:59:08;9.70;99.90
51825;DHT22;37879;52.986;6.282;2023-02-20T16:01:36;9.60;99.90
51825;DHT22;37879;52.986;6.282;2023-02-20T16:04:02;9.60;99.90
51825;DHT22;37879;52.986;6.282;2023-02-20T16:06:28;9.60;99.90
51825;DHT22;37879;52.986;6.282;2023-02-20T16:08:53;9.50;99.90
51825;DHT22;37879;52.986;6.282;2023-02-20T16:11:21;9.50;99.90
51825;DHT22;37879;52.986;6.282;2023-02-20T16:13:54;9.50;99.90
51825;DHT22;37879;52.986;6.282;2023-02-20T16:16:21;9.50;99.90
51825;DHT22;37879;52.986;6.282;2023-02-20T16:18:48;9.50;99.90
51825;DHT22;37879;52.986;6.282;2023-02-20T16:21:18;9.40;99.90
51825;DHT22;37879;52.986;6.282;2023-02-20T16:23:44;9.40;99.90
51825;DHT22;37879;52.986;6.282;2023-02-20T16:26:13;9.40;99.90
51825;DHT22;37879;52.986;6.282;2023-02-20T16:28:38;9.40;99.90
51825;DHT22;37879;52.986;6.282;2023-02-20T16:31:04;9.30;99.90
51825;DHT22;37879;52.986;6.282;2023-02-20T16:33:30;9.30;99.90
51825;DHT22;37879;52.986;6.282;2023-02-20T16:35:56;9.30;99.90
51825;DHT22;37879;52.986;6.282;2023-02-20T16:38:23;9.30;99.90
51825;DHT22;37879;52.986;6.282;2023-02-20T16:40:48;9.20;99.90
51825;DHT22;37879;52.986;6.282;2023-02-20T16:43:20;9.20;99.90
51825;DHT22;37879;52.986;6.282;2023-02-20T16:45:48;9.20;99.90
51825;DHT22;37879;52.986;6.282;2023-02-20T16:48:16;9.30;99.90
51825;DHT22;37879;52.986;6.282;2023-02-20T16:50:43;9.20;99.90
51825;DHT22;37879;52.986;6.282;2023-02-20T16:53:10;9.30;99.90
51825;DHT22;37879;52.986;6.282;2023-02-20T16:55:38;9.20;99.90
51825;DHT22;37879;52.986;6.282;2023-02-20T16:58:07;9.20;99.90
51825;DHT22;37879;52.986;6.282;2023-02-20T17:00:35;9.20;99.90
51825;DHT22;37879;52.986;6.282;2023-02-20T17:03:02;9.10;99.90
51825;DHT22;37879;52.986;6.282;2023-02-20T17:05:32;9.10;99.90
51825;DHT22;37879;52.986;6.282;2023-02-20T17:07:58;9.10;99.90
51825;DHT22;37879;52.986;6.282;2023-02-20T17:10:25;8.10;99.90
51825;DHT22;37879;52.986;6.282;2023-02-20T17:12:52;9.00;99.90
51825;DHT22;37879;52.986;6.282;2023-02-20T17:15:19;9.00;99.90
51825;DHT22;37879;52.986;6.282;2023-02-20T17:17:45;9.00;99.90
51825;DHT22;37879;52.986;6.282;2023-02-20T17:20:15;9.10;99.90
51825;DHT22;37879;52.986;6.282;2023-02-20T17:22:41;9.00;99.90
51825;DHT22;37879;52.986;6.282;2023-02-20T17:25:09;9.00;99.90
51825;DHT22;37879;52.986;6.282;2023-02-20T17:27:38;9.00;99.90
51825;DHT22;37879;52.986;6.282;2023-02-20T17:30:04;9.40;99.90
51825;DHT22;37879;52.986;6.282;2023-02-20T17:32:30;9.00;99.90
51825;DHT22;37879;52.986;6.282;2023-02-20T17:34:56;8.90;99.90
51825;DHT22;37879;52.986;6.282;2023-02-20T17:37:21;8.90;99.90
51825;DHT22;37879;52.986;6.282;2023-02-20T17:39:47;8.90;99.90
51825;DHT22;37879;52.986;6.282;2023-02-20T17:42:13;8.90;99.90
51825;DHT22;37879;52.986;6.282;2023-02-20T17:44:39;9.80;99.90
51825;DHT22;37879;52.986;6.282;2023-02-20T17:47:05;8.90;99.90
51825;DHT22;37879;52.986;6.282;2023-02-20T17:49:34;8.80;99.90
51825;DHT22;37879;52.986;6.282;2023-02-20T17:51:59;8.80;99.90
51825;DHT22;37879;52.986;6.282;2023-02-20T17:54:27;8.80;99.90